• Join FlightAware (Why Join?)
  • Login
  • US Flag 
07:54PM EDT


 

Airport Tracker/Info


-or-


 

Live Flight TrackerFlight Track Log ✈ MAS2802 ✈ 19-Jun-2013 ✈ WBGG / KCH - WBGR / MYY

Flight Track Log - Related Links

Times and Time Zones

All times are in EDT time to prevent confusion due to time zone crossing. See the MAS2802 flight status page for this flight to view local times or setup timezone preferences in your user account.

Time Position Orientation Groundspeed Altitude Reporting Facility
EDT Latitude Longitude Course Direction KTS MPH feet Rate Location/Type
07:02PM 1.4840 110.3400 247° West 23 26  Level FlightAware
07:02PM 1.4830 110.3380 243° Southwest 18 21 120 Level FlightAware
07:03PM 1.4820 110.3380 180° South 120 Level FlightAware
07:06PM 1.6331 110.5317 52° Northeast  Level Estimated
07:06PM 1.4820 110.3390 52° Northeast  Level FlightAware
07:06PM 1.4840 110.3450 72° East 105 121 660 Level FlightAware
07:07PM 1.4920 110.3650 68° East 171 197 700 1,500 Climbing FlightAware
07:07PM 1.5010 110.3870 68° East 180 207 1,500 1,320 Climbing FlightAware
07:08PM 1.5100 110.4110 69° East 207 238 2,000 1,020 Climbing FlightAware
07:08PM 1.5200 110.4370 69° East 237 273 2,500 1,020 Climbing FlightAware
07:09PM 1.5330 110.4690 68° East 273 314 3,000 1,560 Climbing FlightAware
07:09PM 1.5460 110.5020 68° East 286 329 4,000 2,160 Climbing FlightAware
07:10PM 1.5630 110.5360 63° Northeast 294 338 5,000 2,160 Climbing FlightAware
07:10PM 1.5700 110.5450 52° Northeast 297 342 5,300 1,200 Climbing FlightAware
07:10PM 1.6090 110.5790 41° Northeast 335 386 5,900 900 Climbing FlightAware
07:10PM 1.6200 110.5880 39° Northeast 343 395 6,000 1,800 Climbing FlightAware
07:11PM 1.6860 110.6460 41° Northeast 364 419 7,800 2,100 Climbing FlightAware
07:12PM 1.7200 110.6770 42° Northeast 373 429 8,800 2,280 Climbing FlightAware
07:12PM 1.7560 110.7100 42° Northeast 378 435 9,900 2,580 Climbing FlightAware
07:13PM 1.8150 110.7620 41° Northeast 379 436 11,900 2,700 Climbing FlightAware
07:14PM 1.8610 110.8110 47° Northeast 386 444 13,700 2,760 Climbing FlightAware
07:14PM 1.9100 110.8750 53° Northeast 390 449 15,800 2,880 Climbing FlightAware
07:15PM 1.9530 110.9300 52° Northeast 387 445 17,700 2,520 Climbing FlightAware
07:16PM 2.0040 110.9950 52° Northeast 397 457 19,400 1,560 Climbing FlightAware
07:17PM 2.0560 111.0620 52° Northeast 404 465 20,200 480 Climbing FlightAware
07:17PM 2.1040 111.1230 52° Northeast 404 465 20,200  Level FlightAware
07:18PM 2.1400 111.1690 52° Northeast 404 465 20,200  Level FlightAware
07:19PM 2.1870 111.2300 52° Northeast 404 465 20,200  Level FlightAware
07:19PM 2.2230 111.2750 51° Northeast 404 465 20,200  Level FlightAware
07:20PM 2.2600 111.3220 52° Northeast 404 465 20,200  Level FlightAware
07:23PM 2.4243 111.5340 52° Northeast  Level Estimated
07:24PM 2.4933 111.6230 52° Northeast  Level Estimated
07:25PM 2.5622 111.7120 52° Northeast  Level Estimated
07:26PM 2.6223 111.7896 52° Northeast  Level Estimated
07:27PM 2.6825 111.8672 52° Northeast  Level Estimated
07:28PM 2.7426 111.9448 52° Northeast  Level Estimated
07:29PM 2.8027 112.0225 52° Northeast  Level Estimated
07:30PM 2.8628 112.1002 52° Northeast  Level Estimated
07:31PM 2.9229 112.1778 52° Northeast  Level Estimated
07:32PM 2.9830 112.2555 52° Northeast  Level Estimated
07:33PM 3.0431 112.3332 52° Northeast  Level Estimated
07:34PM 3.1032 112.4109 52° Northeast  Level Estimated
07:35PM 3.1633 112.4885 52° Northeast  Level Estimated
07:36PM 3.2234 112.5663 52° Northeast  Level Estimated
07:37PM 3.2835 112.6440 52° Northeast  Level Estimated
07:38PM 3.3435 112.7217 52° Northeast  Level Estimated
07:39PM 3.4036 112.7994 52° Northeast  Level Estimated
07:40PM 3.4636 112.8772 52° Northeast  Level Estimated
07:41PM 3.5237 112.9549 52° Northeast  Level Estimated
07:42PM 3.5837 113.0327 52° Northeast  Level Estimated
07:43PM 3.6438 113.1105 52° Northeast  Level Estimated
07:44PM 3.7038 113.1882 52° Northeast  Level Estimated
07:45PM 3.7638 113.2661 52° Northeast  Level Estimated
07:46PM 3.8238 113.3439 52° Northeast  Level Estimated
07:47PM 3.8838 113.4217 52° Northeast  Level Estimated
07:48PM 3.9438 113.4995 52° Northeast  Level Estimated
07:49PM 4.0038 113.5773 52° Northeast  Level Estimated
07:50PM 4.0638 113.6552 52° Northeast  Level Estimated
07:51PM 4.1238 113.7331 52° Northeast  Level Estimated
07:52PM 4.1838 113.8109 52° Northeast  Level Estimated
07:53PM 4.2437 113.8888 52° Northeast  Level Estimated
07:54PM 4.3037 113.9667 52° Northeast  Level Estimated
07:55PM 4.3218 113.9903 52° Northeast  Level Estimated
07:56PM 4.3218 113.9903 37° Northeast  Level Estimated
07:57PM 4.3218 113.9903 37° Northeast  Level Estimated
07:58PM 4.3218 113.9903 37° Northeast  Level Estimated
07:59PM 4.3218 113.9903 37° Northeast  Level Estimated